sensor_id;sensor_type;location;lat;lon;timestamp;P1;durP1;ratioP1;P2;durP2;ratioP2
37069;SDS011;22984;48.862;9.320;2023-04-03T00:00:42;4.13;;;2.25;;
37069;SDS011;22984;48.862;9.320;2023-04-03T00:03:08;3.08;;;2.28;;
37069;SDS011;22984;48.862;9.320;2023-04-03T00:05:34;2.45;;;2.20;;
37069;SDS011;22984;48.862;9.320;2023-04-03T00:08:00;2.72;;;2.10;;
37069;SDS011;22984;48.862;9.320;2023-04-03T00:10:32;2.60;;;2.40;;
37069;SDS011;22984;48.862;9.320;2023-04-03T00:12:58;4.50;;;2.22;;
37069;SDS011;22984;48.862;9.320;2023-04-03T00:15:24;3.25;;;1.80;;
37069;SDS011;22984;48.862;9.320;2023-04-03T00:17:50;3.40;;;2.35;;
37069;SDS011;22984;48.862;9.320;2023-04-03T00:20:16;2.10;;;2.00;;
37069;SDS011;22984;48.862;9.320;2023-04-03T00:22:42;2.53;;;2.20;;
37069;SDS011;22984;48.862;9.320;2023-04-03T00:25:09;4.30;;;2.60;;
37069;SDS011;22984;48.862;9.320;2023-04-03T00:27:38;3.77;;;2.83;;
37069;SDS011;22984;48.862;9.320;2023-04-03T00:30:04;3.95;;;2.40;;
37069;SDS011;22984;48.862;9.320;2023-04-03T00:32:31;4.07;;;2.35;;
37069;SDS011;22984;48.862;9.320;2023-04-03T00:34:57;2.93;;;2.30;;
37069;SDS011;22984;48.862;9.320;2023-04-03T00:37:23;2.97;;;2.15;;
37069;SDS011;22984;48.862;9.320;2023-04-03T00:39:49;2.85;;;2.33;;
37069;SDS011;22984;48.862;9.320;2023-04-03T00:42:15;2.72;;;2.28;;
37069;SDS011;22984;48.862;9.320;2023-04-03T00:47:11;3.70;;;2.65;;
37069;SDS011;22984;48.862;9.320;2023-04-03T00:49:37;2.58;;;2.25;;
37069;SDS011;22984;48.862;9.320;2023-04-03T00:52:05;3.20;;;2.28;;
37069;SDS011;22984;48.862;9.320;2023-04-03T00:54:31;4.10;;;2.53;;
37069;SDS011;22984;48.862;9.320;2023-04-03T00:56:58;3.85;;;2.45;;
37069;SDS011;22984;48.862;9.320;2023-04-03T00:59:26;2.60;;;2.40;;
37069;SDS011;22984;48.862;9.320;2023-04-03T01:01:53;3.40;;;2.15;;
37069;SDS011;22984;48.862;9.320;2023-04-03T01:06:52;3.42;;;2.50;;
37069;SDS011;22984;48.862;9.320;2023-04-03T01:09:21;2.72;;;2.53;;
37069;SDS011;22984;48.862;9.320;2023-04-03T01:11:47;5.13;;;2.75;;
37069;SDS011;22984;48.862;9.320;2023-04-03T01:14:13;4.63;;;3.10;;
37069;SDS011;22984;48.862;9.320;2023-04-03T01:16:39;2.92;;;2.30;;
37069;SDS011;22984;48.862;9.320;2023-04-03T01:19:10;2.45;;;2.20;;
37069;SDS011;22984;48.862;9.320;2023-04-03T01:26:44;2.25;;;2.10;;
37069;SDS011;22984;48.862;9.320;2023-04-03T01:29:10;2.60;;;2.33;;
37069;SDS011;22984;48.862;9.320;2023-04-03T01:34:11;2.58;;;2.25;;
37069;SDS011;22984;48.862;9.320;2023-04-03T01:36:37;2.47;;;2.28;;
37069;SDS011;22984;48.862;9.320;2023-04-03T01:39:03;3.28;;;2.65;;
37069;SDS011;22984;48.862;9.320;2023-04-03T01:41:29;2.97;;;2.25;;
37069;SDS011;22984;48.862;9.320;2023-04-03T01:43:55;3.00;;;2.47;;
37069;SDS011;22984;48.862;9.320;2023-04-03T01:46:21;2.97;;;2.22;;
37069;SDS011;22984;48.862;9.320;2023-04-03T01:48:47;4.55;;;2.40;;
37069;SDS011;22984;48.862;9.320;2023-04-03T01:51:14;2.45;;;2.25;;
37069;SDS011;22984;48.862;9.320;2023-04-03T01:53:40;3.42;;;2.33;;
37069;SDS011;22984;48.862;9.320;2023-04-03T01:56:06;4.40;;;2.47;;
37069;SDS011;22984;48.862;9.320;2023-04-03T01:58:32;3.80;;;2.33;;
37069;SDS011;22984;48.862;9.320;2023-04-03T02:00:58;3.23;;;2.33;;
37069;SDS011;22984;48.862;9.320;2023-04-03T02:03:24;2.78;;;2.20;;
37069;SDS011;22984;48.862;9.320;2023-04-03T02:05:51;2.60;;;2.40;;
37069;SDS011;22984;48.862;9.320;2023-04-03T02:08:17;5.90;;;2.60;;
37069;SDS011;22984;48.862;9.320;2023-04-03T02:10:52;2.70;;;2.50;;
37069;SDS011;22984;48.862;9.320;2023-04-03T02:13:18;3.00;;;2.70;;
37069;SDS011;22984;48.862;9.320;2023-04-03T02:15:44;4.90;;;2.72;;
37069;SDS011;22984;48.862;9.320;2023-04-03T02:18:11;3.00;;;2.33;;
37069;SDS011;22984;48.862;9.320;2023-04-03T02:20:37;4.47;;;2.60;;
37069;SDS011;22984;48.862;9.320;2023-04-03T02:23:04;3.70;;;2.33;;
37069;SDS011;22984;48.862;9.320;2023-04-03T02:25:30;2.50;;;1.77;;
37069;SDS011;22984;48.862;9.320;2023-04-03T02:27:57;2.50;;;2.30;;
37069;SDS011;22984;48.862;9.320;2023-04-03T02:30:23;2.80;;;1.98;;
37069;SDS011;22984;48.862;9.320;2023-04-03T02:32:49;3.25;;;2.33;;
37069;SDS011;22984;48.862;9.320;2023-04-03T02:35:15;3.17;;;2.00;;
37069;SDS011;22984;48.862;9.320;2023-04-03T02:37:41;4.05;;;1.98;;
37069;SDS011;22984;48.862;9.320;2023-04-03T02:40:07;2.30;;;2.10;;
37069;SDS011;22984;48.862;9.320;2023-04-03T02:42:33;2.95;;;1.90;;
37069;SDS011;22984;48.862;9.320;2023-04-03T02:44:59;3.00;;;2.00;;
37069;SDS011;22984;48.862;9.320;2023-04-03T02:47:26;3.33;;;2.33;;
37069;SDS011;22984;48.862;9.320;2023-04-03T02:49:52;3.17;;;2.30;;
37069;SDS011;22984;48.862;9.320;2023-04-03T02:52:18;2.83;;;2.10;;
37069;SDS011;22984;48.862;9.320;2023-04-03T02:54:45;2.67;;;2.13;;
37069;SDS011;22984;48.862;9.320;2023-04-03T02:57:11;2.85;;;1.70;;
37069;SDS011;22984;48.862;9.320;2023-04-03T02:59:38;3.03;;;2.22;;
37069;SDS011;22984;48.862;9.320;2023-04-03T03:02:06;3.50;;;2.20;;
37069;SDS011;22984;48.862;9.320;2023-04-03T03:04:32;4.28;;;2.10;;
37069;SDS011;22984;48.862;9.320;2023-04-03T03:06:58;3.00;;;2.22;;
37069;SDS011;22984;48.862;9.320;2023-04-03T03:09:24;3.08;;;2.58;;
37069;SDS011;22984;48.862;9.320;2023-04-03T03:11:51;7.13;;;2.17;;
37069;SDS011;22984;48.862;9.320;2023-04-03T03:14:17;4.57;;;2.00;;
37069;SDS011;22984;48.862;9.320;2023-04-03T03:16:43;4.07;;;1.98;;
37069;SDS011;22984;48.862;9.320;2023-04-03T03:19:09;3.45;;;2.00;;
37069;SDS011;22984;48.862;9.320;2023-04-03T03:21:36;3.90;;;2.50;;
37069;SDS011;22984;48.862;9.320;2023-04-03T03:24:02;2.10;;;1.90;;
37069;SDS011;22984;48.862;9.320;2023-04-03T03:26:28;2.75;;;2.13;;
37069;SDS011;22984;48.862;9.320;2023-04-03T03:28:54;3.15;;;1.83;;
37069;SDS011;22984;48.862;9.320;2023-04-03T03:31:20;4.60;;;2.08;;
37069;SDS011;22984;48.862;9.320;2023-04-03T03:33:46;3.22;;;1.83;;
37069;SDS011;22984;48.862;9.320;2023-04-03T03:36:13;3.70;;;1.70;;
37069;SDS011;22984;48.862;9.320;2023-04-03T03:38:39;3.63;;;2.10;;
37069;SDS011;22984;48.862;9.320;2023-04-03T03:41:05;2.85;;;1.70;;
37069;SDS011;22984;48.862;9.320;2023-04-03T03:43:32;3.08;;;2.20;;
37069;SDS011;22984;48.862;9.320;2023-04-03T03:45:58;2.03;;;1.83;;
37069;SDS011;22984;48.862;9.320;2023-04-03T03:48:24;2.63;;;1.58;;
37069;SDS011;22984;48.862;9.320;2023-04-03T03:50:50;3.13;;;1.80;;
37069;SDS011;22984;48.862;9.320;2023-04-03T03:53:16;2.33;;;1.88;;
37069;SDS011;22984;48.862;9.320;2023-04-03T03:55:43;2.78;;;1.77;;
37069;SDS011;22984;48.862;9.320;2023-04-03T03:58:09;5.27;;;2.60;;
37069;SDS011;22984;48.862;9.320;2023-04-03T04:00:35;4.25;;;2.10;;
37069;SDS011;22984;48.862;9.320;2023-04-03T04:03:01;2.70;;;1.90;;
37069;SDS011;22984;48.862;9.320;2023-04-03T04:05:27;8.35;;;2.08;;
37069;SDS011;22984;48.862;9.320;2023-04-03T04:07:53;2.03;;;1.63;;
37069;SDS011;22984;48.862;9.320;2023-04-03T04:10:19;2.17;;;1.90;;
37069;SDS011;22984;48.862;9.320;2023-04-03T04:12:45;7.30;;;2.33;;
37069;SDS011;22984;48.862;9.320;2023-04-03T04:15:14;5.97;;;2.50;;
37069;SDS011;22984;48.862;9.320;2023-04-03T04:17:40;2.97;;;1.85;;
37069;SDS011;22984;48.862;9.320;2023-04-03T04:20:06;1.80;;;1.70;;
37069;SDS011;22984;48.862;9.320;2023-04-03T04:22:32;4.43;;;1.80;;
37069;SDS011;22984;48.862;9.320;2023-04-03T04:24:58;3.00;;;2.10;;
37069;SDS011;22984;48.862;9.320;2023-04-03T04:27:24;4.10;;;2.30;;
37069;SDS011;22984;48.862;9.320;2023-04-03T04:29:50;2.33;;;1.50;;
37069;SDS011;22984;48.862;9.320;2023-04-03T04:32:16;5.30;;;2.22;;
37069;SDS011;22984;48.862;9.320;2023-04-03T04:34:42;1.63;;;1.52;;
37069;SDS011;22984;48.862;9.320;2023-04-03T04:37:08;2.72;;;2.05;;
37069;SDS011;22984;48.862;9.320;2023-04-03T04:39:34;3.80;;;1.70;;
37069;SDS011;22984;48.862;9.320;2023-04-03T04:42:00;3.85;;;2.10;;
37069;SDS011;22984;48.862;9.320;2023-04-03T04:44:26;3.63;;;2.05;;
37069;SDS011;22984;48.862;9.320;2023-04-03T04:46:53;3.85;;;2.38;;
37069;SDS011;22984;48.862;9.320;2023-04-03T04:49:19;3.17;;;1.80;;
37069;SDS011;22984;48.862;9.320;2023-04-03T04:51:45;2.95;;;1.90;;
37069;SDS011;22984;48.862;9.320;2023-04-03T04:54:11;2.47;;;2.30;;
37069;SDS011;22984;48.862;9.320;2023-04-03T04:56:37;2.50;;;2.03;;
37069;SDS011;22984;48.862;9.320;2023-04-03T04:59:03;2.97;;;2.00;;
37069;SDS011;22984;48.862;9.320;2023-04-03T05:01:29;4.18;;;1.80;;
37069;SDS011;22984;48.862;9.320;2023-04-03T05:03:55;1.73;;;1.63;;
37069;SDS011;22984;48.862;9.320;2023-04-03T05:06:21;5.57;;;1.85;;
37069;SDS011;22984;48.862;9.320;2023-04-03T05:08:47;2.97;;;1.90;;
37069;SDS011;22984;48.862;9.320;2023-04-03T05:11:13;2.03;;;1.83;;
37069;SDS011;22984;48.862;9.320;2023-04-03T05:13:40;2.55;;;1.80;;
37069;SDS011;22984;48.862;9.320;2023-04-03T05:16:06;2.67;;;1.92;;
37069;SDS011;22984;48.862;9.320;2023-04-03T05:18:32;3.47;;;1.67;;
37069;SDS011;22984;48.862;9.320;2023-04-03T05:20:58;4.35;;;2.10;;
37069;SDS011;22984;48.862;9.320;2023-04-03T05:23:24;2.28;;;1.88;;
37069;SDS011;22984;48.862;9.320;2023-04-03T05:25:50;3.60;;;1.88;;
37069;SDS011;22984;48.862;9.320;2023-04-03T05:28:16;2.53;;;2.10;;
37069;SDS011;22984;48.862;9.320;2023-04-03T05:30:42;3.75;;;2.10;;
37069;SDS011;22984;48.862;9.320;2023-04-03T05:33:08;6.68;;;2.67;;
37069;SDS011;22984;48.862;9.320;2023-04-03T05:35:36;8.98;;;6.80;;
37069;SDS011;22984;48.862;9.320;2023-04-03T05:38:05;5.07;;;3.00;;
37069;SDS011;22984;48.862;9.320;2023-04-03T05:40:31;3.08;;;1.95;;
37069;SDS011;22984;48.862;9.320;2023-04-03T05:42:57;2.22;;;1.92;;
37069;SDS011;22984;48.862;9.320;2023-04-03T05:45:23;2.83;;;1.80;;
37069;SDS011;22984;48.862;9.320;2023-04-03T05:47:49;2.22;;;1.80;;
37069;SDS011;22984;48.862;9.320;2023-04-03T05:50:15;3.17;;;2.25;;
37069;SDS011;22984;48.862;9.320;2023-04-03T05:52:42;2.10;;;1.67;;
37069;SDS011;22984;48.862;9.320;2023-04-03T05:55:10;1.90;;;1.65;;
37069;SDS011;22984;48.862;9.320;2023-04-03T05:57:36;1.90;;;1.80;;
37069;SDS011;22984;48.862;9.320;2023-04-03T06:00:03;2.25;;;1.40;;
37069;SDS011;22984;48.862;9.320;2023-04-03T06:02:30;2.80;;;1.73;;
37069;SDS011;22984;48.862;9.320;2023-04-03T06:04:56;3.75;;;1.92;;
37069;SDS011;22984;48.862;9.320;2023-04-03T06:07:23;3.90;;;2.17;;
37069;SDS011;22984;48.862;9.320;2023-04-03T06:09:53;3.25;;;1.50;;
37069;SDS011;22984;48.862;9.320;2023-04-03T06:12:20;2.00;;;1.70;;
37069;SDS011;22984;48.862;9.320;2023-04-03T06:14:47;5.55;;;1.80;;
37069;SDS011;22984;48.862;9.320;2023-04-03T06:17:13;3.33;;;1.75;;
37069;SDS011;22984;48.862;9.320;2023-04-03T06:19:40;2.40;;;1.83;;
37069;SDS011;22984;48.862;9.320;2023-04-03T06:22:06;4.22;;;1.98;;
37069;SDS011;22984;48.862;9.320;2023-04-03T06:24:32;2.70;;;1.50;;
37069;SDS011;22984;48.862;9.320;2023-04-03T06:26:58;4.00;;;1.75;;
37069;SDS011;22984;48.862;9.320;2023-04-03T06:29:24;3.30;;;1.90;;
37069;SDS011;22984;48.862;9.320;2023-04-03T06:31:51;2.95;;;1.80;;
37069;SDS011;22984;48.862;9.320;2023-04-03T06:34:17;3.72;;;1.83;;
37069;SDS011;22984;48.862;9.320;2023-04-03T06:36:43;5.18;;;1.40;;
37069;SDS011;22984;48.862;9.320;2023-04-03T06:39:20;2.38;;;2.08;;
37069;SDS011;22984;48.862;9.320;2023-04-03T06:41:47;3.55;;;1.73;;
37069;SDS011;22984;48.862;9.320;2023-04-03T06:44:13;4.47;;;1.65;;
37069;SDS011;22984;48.862;9.320;2023-04-03T06:46:41;4.13;;;2.10;;
37069;SDS011;22984;48.862;9.320;2023-04-03T06:49:07;3.90;;;1.92;;
37069;SDS011;22984;48.862;9.320;2023-04-03T06:51:34;3.47;;;2.08;;
37069;SDS011;22984;48.862;9.320;2023-04-03T06:54:00;3.80;;;2.10;;
37069;SDS011;22984;48.862;9.320;2023-04-03T06:56:26;3.95;;;1.95;;
37069;SDS011;22984;48.862;9.320;2023-04-03T06:58:53;3.17;;;1.70;;
37069;SDS011;22984;48.862;9.320;2023-04-03T07:01:22;4.28;;;2.00;;
37069;SDS011;22984;48.862;9.320;2023-04-03T07:03:48;4.50;;;2.00;;
37069;SDS011;22984;48.862;9.320;2023-04-03T07:06:15;8.95;;;2.10;;
37069;SDS011;22984;48.862;9.320;2023-04-03T07:08:41;2.75;;;1.90;;
37069;SDS011;22984;48.862;9.320;2023-04-03T07:11:07;2.90;;;1.80;;
37069;SDS011;22984;48.862;9.320;2023-04-03T07:13:34;3.90;;;2.28;;
37069;SDS011;22984;48.862;9.320;2023-04-03T07:16:01;3.70;;;1.70;;
37069;SDS011;22984;48.862;9.320;2023-04-03T07:18:28;2.50;;;1.73;;
37069;SDS011;22984;48.862;9.320;2023-04-03T07:20:54;4.90;;;1.75;;
37069;SDS011;22984;48.862;9.320;2023-04-03T07:23:20;7.63;;;1.92;;
37069;SDS011;22984;48.862;9.320;2023-04-03T07:25:47;2.00;;;1.70;;
37069;SDS011;22984;48.862;9.320;2023-04-03T07:28:13;3.38;;;1.63;;
37069;SDS011;22984;48.862;9.320;2023-04-03T07:30:44;2.95;;;2.05;;
37069;SDS011;22984;48.862;9.320;2023-04-03T07:33:11;5.47;;;1.88;;
37069;SDS011;22984;48.862;9.320;2023-04-03T07:35:38;4.63;;;1.85;;
37069;SDS011;22984;48.862;9.320;2023-04-03T07:38:04;3.67;;;1.85;;
37069;SDS011;22984;48.862;9.320;2023-04-03T07:40:30;1.77;;;1.40;;
37069;SDS011;22984;48.862;9.320;2023-04-03T07:42:56;6.23;;;1.63;;
37069;SDS011;22984;48.862;9.320;2023-04-03T07:45:23;4.47;;;1.92;;
37069;SDS011;22984;48.862;9.320;2023-04-03T07:47:49;2.45;;;2.03;;
37069;SDS011;22984;48.862;9.320;2023-04-03T07:50:15;4.57;;;1.60;;
37069;SDS011;22984;48.862;9.320;2023-04-03T07:52:42;4.22;;;1.52;;
37069;SDS011;22984;48.862;9.320;2023-04-03T07:55:08;4.43;;;1.80;;
37069;SDS011;22984;48.862;9.320;2023-04-03T07:57:34;3.70;;;1.60;;
37069;SDS011;22984;48.862;9.320;2023-04-03T08:00:00;4.88;;;2.20;;
37069;SDS011;22984;48.862;9.320;2023-04-03T08:02:26;5.05;;;1.90;;
37069;SDS011;22984;48.862;9.320;2023-04-03T08:04:52;3.47;;;1.95;;
37069;SDS011;22984;48.862;9.320;2023-04-03T08:07:18;5.53;;;2.35;;
37069;SDS011;22984;48.862;9.320;2023-04-03T08:09:45;3.33;;;1.80;;
37069;SDS011;22984;48.862;9.320;2023-04-03T08:12:11;3.90;;;1.88;;
37069;SDS011;22984;48.862;9.320;2023-04-03T08:14:39;3.00;;;1.50;;
37069;SDS011;22984;48.862;9.320;2023-04-03T08:17:05;4.95;;;2.15;;
37069;SDS011;22984;48.862;9.320;2023-04-03T08:19:34;3.00;;;1.40;;
37069;SDS011;22984;48.862;9.320;2023-04-03T08:22:00;4.28;;;1.90;;
37069;SDS011;22984;48.862;9.320;2023-04-03T08:24:28;5.50;;;2.10;;
37069;SDS011;22984;48.862;9.320;2023-04-03T08:26:54;2.90;;;1.50;;
37069;SDS011;22984;48.862;9.320;2023-04-03T08:29:20;3.72;;;1.80;;
37069;SDS011;22984;48.862;9.320;2023-04-03T08:31:46;2.75;;;1.60;;
37069;SDS011;22984;48.862;9.320;2023-04-03T08:34:14;4.20;;;1.92;;
37069;SDS011;22984;48.862;9.320;2023-04-03T08:36:40;3.33;;;1.80;;
37069;SDS011;22984;48.862;9.320;2023-04-03T08:39:06;4.23;;;1.50;;
37069;SDS011;22984;48.862;9.320;2023-04-03T08:41:36;2.85;;;1.40;;
37069;SDS011;22984;48.862;9.320;2023-04-03T08:49:36;4.28;;;1.58;;
37069;SDS011;22984;48.862;9.320;2023-04-03T08:52:10;2.53;;;1.67;;
37069;SDS011;22984;48.862;9.320;2023-04-03T08:54:50;2.20;;;1.50;;
37069;SDS011;22984;48.862;9.320;2023-04-03T08:57:17;4.60;;;1.92;;
37069;SDS011;22984;48.862;9.320;2023-04-03T08:59:45;6.13;;;2.35;;
37069;SDS011;22984;48.862;9.320;2023-04-03T09:02:34;3.30;;;1.70;;
37069;SDS011;22984;48.862;9.320;2023-04-03T09:04:58;4.32;;;2.15;;
37069;SDS011;22984;48.862;9.320;2023-04-03T09:07:30;4.03;;;1.70;;
37069;SDS011;22984;48.862;9.320;2023-04-03T09:09:59;3.00;;;1.70;;
37069;SDS011;22984;48.862;9.320;2023-04-03T09:12:29;5.47;;;1.77;;
37069;SDS011;22984;48.862;9.320;2023-04-03T09:20:30;5.60;;;1.40;;
37069;SDS011;22984;48.862;9.320;2023-04-03T09:22:59;2.42;;;1.25;;
37069;SDS011;22984;48.862;9.320;2023-04-03T09:25:34;4.10;;;1.38;;
37069;SDS011;22984;48.862;9.320;2023-04-03T09:28:02;3.08;;;1.25;;
37069;SDS011;22984;48.862;9.320;2023-04-03T09:30:29;3.55;;;1.55;;
37069;SDS011;22984;48.862;9.320;2023-04-03T09:32:56;4.38;;;1.30;;
37069;SDS011;22984;48.862;9.320;2023-04-03T09:35:24;2.72;;;1.40;;
37069;SDS011;22984;48.862;9.320;2023-04-03T09:37:51;2.00;;;1.27;;
37069;SDS011;22984;48.862;9.320;2023-04-03T09:40:39;3.80;;;1.70;;
37069;SDS011;22984;48.862;9.320;2023-04-03T09:45:43;3.58;;;1.23;;
37069;SDS011;22984;48.862;9.320;2023-04-03T09:55:59;4.20;;;1.38;;
37069;SDS011;22984;48.862;9.320;2023-04-03T09:58:29;2.85;;;1.27;;
37069;SDS011;22984;48.862;9.320;2023-04-03T10:00:58;2.90;;;1.50;;
37069;SDS011;22984;48.862;9.320;2023-04-03T10:03:27;1.17;;;0.98;;
37069;SDS011;22984;48.862;9.320;2023-04-03T10:05:53;3.08;;;1.38;;
37069;SDS011;22984;48.862;9.320;2023-04-03T10:08:27;2.55;;;1.35;;
37069;SDS011;22984;48.862;9.320;2023-04-03T10:11:08;3.83;;;1.35;;
37069;SDS011;22984;48.862;9.320;2023-04-03T10:13:34;3.63;;;1.70;;
37069;SDS011;22984;48.862;9.320;2023-04-03T10:16:08;2.33;;;1.58;;
37069;SDS011;22984;48.862;9.320;2023-04-03T10:21:08;3.53;;;1.38;;
37069;SDS011;22984;48.862;9.320;2023-04-03T10:29:02;5.55;;;1.20;;
37069;SDS011;22984;48.862;9.320;2023-04-03T10:37:01;2.43;;;1.03;;
37069;SDS011;22984;48.862;9.320;2023-04-03T10:39:39;3.60;;;1.13;;
37069;SDS011;22984;48.862;9.320;2023-04-03T10:42:15;3.38;;;0.90;;
37069;SDS011;22984;48.862;9.320;2023-04-03T10:47:20;3.13;;;1.20;;
37069;SDS011;22984;48.862;9.320;2023-04-03T10:49:51;2.45;;;0.98;;
37069;SDS011;22984;48.862;9.320;2023-04-03T10:52:22;2.30;;;0.70;;
37069;SDS011;22984;48.862;9.320;2023-04-03T10:57:15;2.50;;;1.05;;
37069;SDS011;22984;48.862;9.320;2023-04-03T10:59:43;1.70;;;1.10;;
37069;SDS011;22984;48.862;9.320;2023-04-03T11:04:58;1.95;;;0.90;;
37069;SDS011;22984;48.862;9.320;2023-04-03T11:07:26;2.83;;;1.40;;
37069;SDS011;22984;48.862;9.320;2023-04-03T11:09:57;4.43;;;1.17;;
37069;SDS011;22984;48.862;9.320;2023-04-03T11:12:25;2.80;;;1.38;;
37069;SDS011;22984;48.862;9.320;2023-04-03T11:14:53;2.17;;;1.10;;
37069;SDS011;22984;48.862;9.320;2023-04-03T11:20:03;3.92;;;1.00;;
37069;SDS011;22984;48.862;9.320;2023-04-03T11:22:32;2.33;;;0.90;;
37069;SDS011;22984;48.862;9.320;2023-04-03T11:25:21;3.40;;;1.20;;
37069;SDS011;22984;48.862;9.320;2023-04-03T11:27:55;2.17;;;1.27;;
37069;SDS011;22984;48.862;9.320;2023-04-03T11:30:33;2.83;;;1.33;;
37069;SDS011;22984;48.862;9.320;2023-04-03T11:35:29;1.83;;;1.33;;
37069;SDS011;22984;48.862;9.320;2023-04-03T11:37:56;3.65;;;1.20;;
37069;SDS011;22984;48.862;9.320;2023-04-03T11:40:29;2.30;;;1.10;;
37069;SDS011;22984;48.862;9.320;2023-04-03T11:48:02;1.63;;;1.17;;
37069;SDS011;22984;48.862;9.320;2023-04-03T12:05:53;1.55;;;0.90;;
37069;SDS011;22984;48.862;9.320;2023-04-03T12:08:26;2.42;;;1.15;;
37069;SDS011;22984;48.862;9.320;2023-04-03T12:13:38;3.15;;;1.20;;
37069;SDS011;22984;48.862;9.320;2023-04-03T12:18:53;2.30;;;1.40;;
37069;SDS011;22984;48.862;9.320;2023-04-03T12:21:21;1.88;;;1.02;;
37069;SDS011;22984;48.862;9.320;2023-04-03T12:23:59;2.10;;;1.00;;
37069;SDS011;22984;48.862;9.320;2023-04-03T12:29:17;1.67;;;1.08;;
37069;SDS011;22984;48.862;9.320;2023-04-03T12:31:49;1.88;;;1.02;;
37069;SDS011;22984;48.862;9.320;2023-04-03T12:34:24;1.85;;;1.00;;
37069;SDS011;22984;48.862;9.320;2023-04-03T12:37:00;2.45;;;1.15;;
37069;SDS011;22984;48.862;9.320;2023-04-03T12:42:35;2.70;;;1.10;;
37069;SDS011;22984;48.862;9.320;2023-04-03T12:45:14;1.13;;;0.82;;
37069;SDS011;22984;48.862;9.320;2023-04-03T12:47:42;1.92;;;0.90;;
37069;SDS011;22984;48.862;9.320;2023-04-03T12:55:27;3.60;;;1.05;;
37069;SDS011;22984;48.862;9.320;2023-04-03T12:57:53;4.38;;;1.65;;
37069;SDS011;22984;48.862;9.320;2023-04-03T13:00:20;2.93;;;1.13;;
37069;SDS011;22984;48.862;9.320;2023-04-03T13:02:46;4.47;;;4.05;;
37069;SDS011;22984;48.862;9.320;2023-04-03T13:05:15;3.63;;;1.20;;
37069;SDS011;22984;48.862;9.320;2023-04-03T13:07:42;1.42;;;1.13;;
37069;SDS011;22984;48.862;9.320;2023-04-03T13:12:35;2.78;;;1.02;;
37069;SDS011;22984;48.862;9.320;2023-04-03T13:15:11;1.80;;;1.40;;
37069;SDS011;22984;48.862;9.320;2023-04-03T13:17:38;2.90;;;1.52;;
37069;SDS011;22984;48.862;9.320;2023-04-03T13:20:12;2.53;;;1.15;;
37069;SDS011;22984;48.862;9.320;2023-04-03T13:22:40;2.10;;;1.77;;
37069;SDS011;22984;48.862;9.320;2023-04-03T13:25:09;1.58;;;1.48;;
37069;SDS011;22984;48.862;9.320;2023-04-03T13:27:36;3.58;;;1.70;;
37069;SDS011;22984;48.862;9.320;2023-04-03T13:30:17;4.35;;;1.35;;
37069;SDS011;22984;48.862;9.320;2023-04-03T13:32:45;2.97;;;1.30;;
37069;SDS011;22984;48.862;9.320;2023-04-03T13:35:24;1.10;;;1.00;;
37069;SDS011;22984;48.862;9.320;2023-04-03T13:37:54;4.05;;;1.40;;
37069;SDS011;22984;48.862;9.320;2023-04-03T13:40:20;3.63;;;1.35;;
37069;SDS011;22984;48.862;9.320;2023-04-03T13:42:48;2.40;;;1.40;;
37069;SDS011;22984;48.862;9.320;2023-04-03T13:45:25;2.85;;;1.60;;
37069;SDS011;22984;48.862;9.320;2023-04-03T13:47:55;2.63;;;1.30;;
37069;SDS011;22984;48.862;9.320;2023-04-03T13:50:32;5.57;;;1.40;;
37069;SDS011;22984;48.862;9.320;2023-04-03T13:53:03;2.60;;;1.38;;
37069;SDS011;22984;48.862;9.320;2023-04-03T13:55:35;3.05;;;1.30;;
37069;SDS011;22984;48.862;9.320;2023-04-03T13:58:16;1.38;;;1.17;;
37069;SDS011;22984;48.862;9.320;2023-04-03T14:03:31;2.05;;;1.40;;
37069;SDS011;22984;48.862;9.320;2023-04-03T14:05:59;2.75;;;1.20;;
37069;SDS011;22984;48.862;9.320;2023-04-03T14:08:26;2.15;;;1.20;;
37069;SDS011;22984;48.862;9.320;2023-04-03T14:10:52;2.90;;;1.33;;
37069;SDS011;22984;48.862;9.320;2023-04-03T14:13:19;2.53;;;1.20;;
37069;SDS011;22984;48.862;9.320;2023-04-03T14:15:46;1.55;;;1.15;;
37069;SDS011;22984;48.862;9.320;2023-04-03T14:18:14;1.63;;;1.27;;
37069;SDS011;22984;48.862;9.320;2023-04-03T14:20:40;3.10;;;1.10;;
37069;SDS011;22984;48.862;9.320;2023-04-03T14:23:06;3.67;;;1.33;;
37069;SDS011;22984;48.862;9.320;2023-04-03T14:25:33;1.33;;;1.10;;
37069;SDS011;22984;48.862;9.320;2023-04-03T14:27:59;2.40;;;1.67;;
37069;SDS011;22984;48.862;9.320;2023-04-03T14:30:27;2.97;;;1.10;;
37069;SDS011;22984;48.862;9.320;2023-04-03T14:32:54;2.05;;;1.00;;
37069;SDS011;22984;48.862;9.320;2023-04-03T14:35:20;1.50;;;1.00;;
37069;SDS011;22984;48.862;9.320;2023-04-03T14:37:47;4.07;;;1.02;;
37069;SDS011;22984;48.862;9.320;2023-04-03T14:40:14;3.08;;;1.38;;
37069;SDS011;22984;48.862;9.320;2023-04-03T14:42:41;1.75;;;1.00;;
37069;SDS011;22984;48.862;9.320;2023-04-03T14:45:08;4.38;;;1.30;;
37069;SDS011;22984;48.862;9.320;2023-04-03T14:47:36;2.67;;;1.23;;
37069;SDS011;22984;48.862;9.320;2023-04-03T14:50:06;1.27;;;1.00;;
37069;SDS011;22984;48.862;9.320;2023-04-03T14:52:34;5.00;;;1.67;;
37069;SDS011;22984;48.862;9.320;2023-04-03T14:55:01;5.93;;;2.20;;
37069;SDS011;22984;48.862;9.320;2023-04-03T14:57:28;5.43;;;1.47;;
37069;SDS011;22984;48.862;9.320;2023-04-03T14:59:55;3.58;;;1.40;;
37069;SDS011;22984;48.862;9.320;2023-04-03T15:02:39;4.20;;;1.23;;
37069;SDS011;22984;48.862;9.320;2023-04-03T15:05:07;2.63;;;1.40;;
37069;SDS011;22984;48.862;9.320;2023-04-03T15:07:45;2.28;;;1.40;;
37069;SDS011;22984;48.862;9.320;2023-04-03T15:12:45;4.63;;;1.42;;
37069;SDS011;22984;48.862;9.320;2023-04-03T15:15:12;3.65;;;1.17;;
37069;SDS011;22984;48.862;9.320;2023-04-03T15:17:38;1.83;;;1.02;;
37069;SDS011;22984;48.862;9.320;2023-04-03T15:20:18;1.98;;;1.00;;
37069;SDS011;22984;48.862;9.320;2023-04-03T15:22:44;3.75;;;1.30;;
37069;SDS011;22984;48.862;9.320;2023-04-03T15:25:10;2.40;;;1.20;;
37069;SDS011;22984;48.862;9.320;2023-04-03T15:27:37;4.85;;;1.63;;
37069;SDS011;22984;48.862;9.320;2023-04-03T15:30:04;3.08;;;1.20;;
37069;SDS011;22984;48.862;9.320;2023-04-03T15:32:31;3.13;;;1.08;;
37069;SDS011;22984;48.862;9.320;2023-04-03T15:34:58;4.25;;;1.35;;
37069;SDS011;22984;48.862;9.320;2023-04-03T15:37:24;3.70;;;1.10;;
37069;SDS011;22984;48.862;9.320;2023-04-03T15:39:50;2.60;;;1.10;;
37069;SDS011;22984;48.862;9.320;2023-04-03T15:42:16;1.77;;;0.88;;
37069;SDS011;22984;48.862;9.320;2023-04-03T15:44:43;5.93;;;1.50;;
37069;SDS011;22984;48.862;9.320;2023-04-03T15:47:09;1.70;;;1.58;;
37069;SDS011;22984;48.862;9.320;2023-04-03T15:49:35;2.50;;;1.52;;
37069;SDS011;22984;48.862;9.320;2023-04-03T15:52:01;3.58;;;1.80;;
37069;SDS011;22984;48.862;9.320;2023-04-03T15:54:27;6.97;;;2.22;;
37069;SDS011;22984;48.862;9.320;2023-04-03T15:56:54;2.80;;;1.80;;
37069;SDS011;22984;48.862;9.320;2023-04-03T15:59:20;1.98;;;1.20;;
37069;SDS011;22984;48.862;9.320;2023-04-03T16:01:47;1.43;;;1.30;;
37069;SDS011;22984;48.862;9.320;2023-04-03T16:04:13;3.58;;;1.30;;
37069;SDS011;22984;48.862;9.320;2023-04-03T16:06:40;2.97;;;1.67;;
37069;SDS011;22984;48.862;9.320;2023-04-03T16:09:06;3.38;;;1.30;;
37069;SDS011;22984;48.862;9.320;2023-04-03T16:11:32;2.50;;;1.58;;
37069;SDS011;22984;48.862;9.320;2023-04-03T16:14:00;3.10;;;2.03;;
37069;SDS011;22984;48.862;9.320;2023-04-03T16:16:27;2.72;;;1.80;;
37069;SDS011;22984;48.862;9.320;2023-04-03T16:18:53;1.70;;;1.17;;
37069;SDS011;22984;48.862;9.320;2023-04-03T16:21:20;2.28;;;1.35;;
37069;SDS011;22984;48.862;9.320;2023-04-03T16:23:46;2.67;;;1.53;;
37069;SDS011;22984;48.862;9.320;2023-04-03T16:26:12;2.75;;;1.58;;
37069;SDS011;22984;48.862;9.320;2023-04-03T16:28:38;4.40;;;1.20;;
37069;SDS011;22984;48.862;9.320;2023-04-03T16:31:05;1.70;;;1.00;;
37069;SDS011;22984;48.862;9.320;2023-04-03T16:33:31;1.70;;;1.20;;
37069;SDS011;22984;48.862;9.320;2023-04-03T16:35:57;2.00;;;1.20;;